KDAG/DAG METAR and TAF weather

Enter ICAO airport designator
Station Type Date Time Source
KDAG METAR 2018/07/21 03:50 UTC NOAA

KDAG 210350Z AUTO 27010KT 10SM CLR 35/15 A2988 RMK AO2 SLP087 T03500150


Station Type Date Time Source
KDAG Decoded METAR 2018/07/21 03:50 UTC NOAA

BARSTOW-DAGGETT AIRPORT, CA, United States (KDAG) 34-51N 116-47W 587M
Jul 20, 2018 - 11:50 PM EDT / 2018.07.21 0350 UTC
Wind: from the W (270 degrees) at 12 MPH (10 KT):0
Visibility: 10 mile(s):0
Sky conditions: clear
Temperature: 95.0 F (35.0 C)
Heat index: 94.5 F (34.7 C):1
Dew Point: 59.0 F (15.0 C)
Relative Humidity: 30%
Pressure (altimeter): 29.88 in. Hg (1011 hPa)
ob: KDAG 210350Z AUTO 27010KT 10SM CLR 35/15 A2988 RMK AO2 SLP087 T03500150
cycle: 4

Station Type Date Time Source
KDAG TAF 2018/07/20 21:51 UTC NOAA

TAF
AMD KDAG 202049Z 2021/2118 16014G22KT P6SM SCT100
FM210100 24012KT P6SM SCT110
FM210600 26008KT P6SM SCT250


Example: see airport list